createdAt,value
2019-02-04T00:01:20.408Z,-1.79
2019-02-04T00:05:23.195Z,-1.79
2019-02-04T00:09:26.040Z,-1.81
2019-02-04T00:13:29.167Z,-1.81
2019-02-04T00:17:32.008Z,-1.83
2019-02-04T00:21:34.868Z,-1.85
2019-02-04T00:25:37.808Z,-1.87
2019-02-04T00:29:40.532Z,-1.88
2019-02-04T00:33:43.342Z,-1.96
2019-02-04T00:37:46.092Z,-2.00
2019-02-04T00:41:48.988Z,-2.08
2019-02-04T00:45:51.915Z,-2.14
2019-02-04T00:49:54.743Z,-2.15
2019-02-04T00:53:57.632Z,-2.16
2019-02-04T00:58:00.605Z,-2.18
2019-02-04T01:02:03.508Z,-2.19
2019-02-04T01:06:06.940Z,-2.21
2019-02-04T01:10:11.443Z,-2.24
2019-02-04T01:14:14.441Z,-2.26
2019-02-04T01:18:16.878Z,-2.27
2019-02-04T01:22:19.356Z,-2.29
2019-02-04T01:26:21.792Z,-2.30
2019-02-04T01:30:24.639Z,-2.30
2019-02-04T01:34:27.113Z,-2.33
2019-02-04T01:38:30.200Z,-2.37
2019-02-04T01:42:32.978Z,-2.36
2019-02-04T01:46:36.004Z,-2.41
2019-02-04T01:50:39.059Z,-2.43
2019-02-04T01:54:41.810Z,-2.46
2019-02-04T01:58:44.931Z,-2.48
2019-02-04T02:02:47.807Z,-2.57
2019-02-04T02:06:50.707Z,-2.65
2019-02-04T02:10:53.600Z,-2.68
2019-02-04T02:14:56.427Z,-2.71
2019-02-04T02:18:59.249Z,-2.76
2019-02-04T02:23:02.064Z,-2.80
2019-02-04T02:27:05.265Z,-2.83
2019-02-04T02:31:08.132Z,-2.87
2019-02-04T02:35:11.349Z,-2.89
2019-02-04T02:39:14.323Z,-2.91
2019-02-04T02:43:17.111Z,-2.95
2019-02-04T02:47:20.100Z,-2.97
2019-02-04T02:51:22.961Z,-3.01
2019-02-04T02:55:25.803Z,-3.06
2019-02-04T02:59:29.071Z,-3.08
2019-02-04T03:03:32.391Z,-3.10
2019-02-04T03:07:35.416Z,-3.14
2019-02-04T03:11:38.199Z,-3.15
2019-02-04T03:15:40.942Z,-3.15
2019-02-04T03:19:43.690Z,-3.17
2019-02-04T03:23:46.555Z,-3.18
2019-02-04T03:27:49.353Z,-3.19
2019-02-04T03:31:52.255Z,-3.20
2019-02-04T03:35:55.157Z,-3.20
2019-02-04T03:39:58.008Z,-3.19
2019-02-04T03:44:00.851Z,-3.21
2019-02-04T03:48:08.991Z,-3.21
2019-02-04T03:52:08.269Z,-3.25
2019-02-04T03:56:11.238Z,-3.30
2019-02-04T04:00:17.827Z,-3.32
2019-02-04T04:04:20.802Z,-3.34
2019-02-04T04:08:23.648Z,-3.36
2019-02-04T04:12:26.512Z,-3.37
2019-02-04T04:16:29.253Z,-3.40
2019-02-04T04:20:32.072Z,-3.43
2019-02-04T04:24:34.727Z,-3.47
2019-02-04T04:28:37.663Z,-3.48
2019-02-04T04:32:40.358Z,-3.56
2019-02-04T04:36:43.244Z,-3.62
2019-02-04T04:40:46.003Z,-3.67
2019-02-04T04:44:49.143Z,-3.69
2019-02-04T04:48:51.804Z,-3.74
2019-02-04T04:52:56.058Z,-3.78
2019-02-04T04:56:58.820Z,-3.81
2019-02-04T05:01:01.575Z,-3.86
2019-02-04T05:05:05.000Z,-3.89
2019-02-04T05:09:09.195Z,-3.91
2019-02-04T05:13:11.979Z,-3.95
2019-02-04T05:17:14.733Z,-3.97
2019-02-04T05:21:17.589Z,-3.98
2019-02-04T05:25:20.782Z,-4.00
2019-02-04T05:29:23.502Z,-4.01
2019-02-04T05:33:26.185Z,-4.02
2019-02-04T05:37:29.220Z,-4.05
2019-02-04T05:41:32.263Z,-4.07
2019-02-04T05:45:35.015Z,-4.08
2019-02-04T05:49:37.833Z,-4.09
2019-02-04T05:53:40.735Z,-4.11
2019-02-04T05:57:43.532Z,-4.12
2019-02-04T06:01:46.189Z,-4.11
2019-02-04T06:05:48.911Z,-4.13
2019-02-04T06:09:51.630Z,-4.14
2019-02-04T06:13:54.596Z,-4.13
2019-02-04T06:17:57.311Z,-4.15
2019-02-04T06:22:00.202Z,-4.15
2019-02-04T06:26:02.984Z,-4.15
2019-02-04T06:30:06.872Z,-4.17
2019-02-04T06:34:09.662Z,-4.18
2019-02-04T06:38:12.902Z,-4.22
2019-02-04T06:42:15.549Z,-4.24
2019-02-04T06:46:18.232Z,-4.27
2019-02-04T06:50:20.967Z,-4.26
2019-02-04T06:54:23.882Z,-4.31
2019-02-04T06:58:26.266Z,-4.33
2019-02-04T07:02:29.231Z,-4.34
2019-02-04T07:06:31.665Z,-4.36
2019-02-04T07:10:35.231Z,-4.37
2019-02-04T07:14:37.971Z,-4.35
2019-02-04T07:18:40.531Z,-4.40
2019-02-04T07:22:43.061Z,-4.43
2019-02-04T07:26:45.557Z,-4.42
2019-02-04T07:30:47.945Z,-4.44
2019-02-04T07:34:50.559Z,-4.44
2019-02-04T07:38:53.175Z,-4.48
2019-02-04T07:42:56.188Z,-4.51
2019-02-04T07:46:58.718Z,-4.52
2019-02-04T07:51:01.310Z,-4.54
2019-02-04T07:55:03.791Z,-4.56
2019-02-04T07:59:06.496Z,-4.64
2019-02-04T08:03:09.295Z,-4.64
2019-02-04T08:07:11.789Z,-4.69
2019-02-04T08:11:14.306Z,-4.69
2019-02-04T08:15:22.532Z,-4.72
2019-02-04T08:19:24.941Z,-4.67
2019-02-04T08:23:27.412Z,-4.55
2019-02-04T08:27:29.846Z,-4.56
2019-02-04T08:31:32.646Z,-4.50
2019-02-04T08:35:35.416Z,-4.52
2019-02-04T08:39:38.393Z,-4.51
2019-02-04T08:43:41.088Z,-4.53
2019-02-04T08:47:43.923Z,-4.56
2019-02-04T08:51:46.695Z,-4.61
2019-02-04T08:55:50.565Z,-4.71
2019-02-04T08:59:52.977Z,-4.70
2019-02-04T09:03:55.441Z,-4.81
2019-02-04T09:07:57.975Z,-4.82
2019-02-04T09:12:00.580Z,-4.76
2019-02-04T09:16:03.172Z,-4.73
2019-02-04T09:20:10.097Z,-4.59
2019-02-04T09:24:11.879Z,-4.31
2019-02-04T09:28:14.999Z,-4.31
2019-02-04T09:32:17.843Z,-4.29
2019-02-04T09:36:20.852Z,-4.23
2019-02-04T09:40:44.040Z,-4.15
2019-02-04T09:44:46.756Z,-4.09
2019-02-04T09:48:49.473Z,-4.11
2019-02-04T09:52:52.509Z,-4.14
2019-02-04T09:56:55.622Z,-4.34
2019-02-04T10:00:58.742Z,-4.38
2019-02-04T10:05:01.986Z,-4.36
2019-02-04T10:09:06.314Z,-4.42
2019-02-04T10:13:10.402Z,-4.54
2019-02-04T10:17:13.113Z,-4.48
2019-02-04T10:21:16.003Z,-4.50
2019-02-04T10:25:21.142Z,-4.45
2019-02-04T10:29:24.183Z,-4.24
2019-02-04T10:33:27.047Z,-4.38
2019-02-04T10:37:29.792Z,-4.40
2019-02-04T10:41:32.799Z,-4.38
2019-02-04T10:45:35.630Z,-4.49
2019-02-04T10:49:38.447Z,-4.44
2019-02-04T10:53:41.175Z,-4.45
2019-02-04T10:57:44.348Z,-4.39
2019-02-04T11:01:47.330Z,-4.20
2019-02-04T11:05:50.287Z,-4.05
2019-02-04T11:09:54.533Z,-4.32
2019-02-04T11:13:57.262Z,-4.31
2019-02-04T11:18:00.602Z,-4.35
2019-02-04T11:22:03.434Z,-4.32
2019-02-04T11:26:06.569Z,-4.42
2019-02-04T11:30:15.343Z,-4.38
2019-02-04T11:34:18.282Z,-4.36
2019-02-04T11:38:21.068Z,-4.49
2019-02-04T11:42:23.847Z,-4.55
2019-02-04T11:46:26.687Z,-4.64
2019-02-04T11:50:29.801Z,-4.68
2019-02-04T11:54:32.562Z,-4.66
2019-02-04T11:58:35.543Z,-4.56
2019-02-04T12:02:39.253Z,-4.58
2019-02-04T12:06:41.928Z,-4.65
2019-02-04T12:10:48.508Z,-4.63
2019-02-04T12:14:51.138Z,-4.71
2019-02-04T12:18:54.102Z,-4.89
2019-02-04T12:22:57.021Z,-4.95
2019-02-04T12:26:59.903Z,-4.97
2019-02-04T12:31:02.705Z,-5.09
2019-02-04T12:35:06.564Z,-5.16
2019-02-04T12:39:18.382Z,-5.15
2019-02-04T12:43:21.449Z,-5.22
2019-02-04T12:47:24.167Z,-5.30
2019-02-04T12:51:33.802Z,-5.28
2019-02-04T12:55:32.615Z,-5.23
2019-02-04T12:59:35.074Z,-5.23
2019-02-04T13:03:37.860Z,-5.25
2019-02-04T13:07:40.767Z,-5.24
2019-02-04T13:11:43.528Z,-5.17
2019-02-04T13:15:48.313Z,-5.31
2019-02-04T13:19:50.949Z,-5.45
2019-02-04T13:23:53.723Z,-5.57
2019-02-04T13:27:56.478Z,-5.60
2019-02-04T13:31:59.362Z,-5.78
2019-02-04T13:36:02.835Z,-5.78
2019-02-04T13:40:07.183Z,-5.74
2019-02-04T13:44:10.098Z,-5.85
2019-02-04T13:48:12.914Z,-5.88
2019-02-04T13:52:15.624Z,-5.84
2019-02-04T13:56:18.309Z,-5.87
2019-02-04T14:00:21.268Z,-5.85
2019-02-04T14:04:24.189Z,-5.93
2019-02-04T14:08:27.147Z,-5.91
2019-02-04T14:12:29.990Z,-5.91
2019-02-04T14:16:32.714Z,-5.88
2019-02-04T14:20:35.761Z,-5.92
2019-02-04T14:24:38.403Z,-5.96
2019-02-04T14:28:41.590Z,-6.00
2019-02-04T14:32:44.396Z,-6.07
2019-02-04T14:36:47.238Z,-6.10
2019-02-04T14:40:50.235Z,-6.14
2019-02-04T14:45:12.200Z,-6.13
2019-02-04T14:49:43.038Z,-6.14
2019-02-04T14:54:15.284Z,-6.18
2019-02-04T14:58:45.442Z,-6.20
2019-02-04T15:03:19.208Z,-6.23
2019-02-04T15:07:47.042Z,-6.33
2019-02-04T15:12:24.053Z,-6.41
2019-02-04T15:16:56.739Z,-6.45
2019-02-04T15:21:22.312Z,-6.47
2019-02-04T15:25:42.368Z,-6.58
2019-02-04T15:29:49.225Z,-6.62
2019-02-04T15:34:17.028Z,-6.63
2019-02-04T15:38:44.192Z,-6.74
2019-02-04T15:43:16.601Z,-6.82
2019-02-04T15:47:28.639Z,-6.83
2019-02-04T15:51:38.983Z,-6.74
2019-02-04T15:55:41.809Z,-6.77
2019-02-04T15:59:44.523Z,-6.70
2019-02-04T16:03:47.454Z,-6.70
2019-02-04T16:07:50.264Z,-6.66
2019-02-04T16:11:53.168Z,-6.65
2019-02-04T16:15:55.878Z,-6.64
2019-02-04T16:19:58.648Z,-6.66
2019-02-04T16:24:01.730Z,-6.65
2019-02-04T16:28:04.586Z,-6.64
2019-02-04T16:32:08.013Z,-6.64
2019-02-04T16:36:10.833Z,-6.62
2019-02-04T16:40:15.638Z,-6.63
2019-02-04T16:44:18.423Z,-6.62
2019-02-04T16:48:21.202Z,-6.59
2019-02-04T16:52:24.073Z,-6.59
2019-02-04T16:56:27.040Z,-6.57
2019-02-04T17:00:31.370Z,-6.55
2019-02-04T17:04:34.058Z,-6.53
2019-02-04T17:08:37.268Z,-6.51
2019-02-04T17:12:40.140Z,-6.51
2019-02-04T17:16:42.970Z,-6.47
2019-02-04T17:20:46.908Z,-6.48
2019-02-04T17:24:49.706Z,-6.47
2019-02-04T17:28:54.713Z,-6.48
2019-02-04T17:32:57.633Z,-6.47
2019-02-04T17:37:00.518Z,-6.46
2019-02-04T17:41:03.704Z,-6.44
2019-02-04T17:45:08.053Z,-6.41
2019-02-04T17:49:10.936Z,-6.40
2019-02-04T17:53:13.879Z,-6.40
2019-02-04T17:57:16.661Z,-6.41
2019-02-04T18:01:19.476Z,-6.38
2019-02-04T18:05:22.244Z,-6.38
2019-02-04T18:09:24.982Z,-6.37
2019-02-04T18:13:27.768Z,-6.36
2019-02-04T18:17:30.443Z,-6.36
2019-02-04T18:21:33.192Z,-6.32
2019-02-04T18:25:36.043Z,-6.29
2019-02-04T18:29:39.006Z,-6.29
2019-02-04T18:33:42.210Z,-6.26
2019-02-04T18:37:45.263Z,-6.22
2019-02-04T18:41:47.991Z,-6.21
2019-02-04T18:45:50.982Z,-6.19
2019-02-04T18:49:53.873Z,-6.14
2019-02-04T18:53:58.006Z,-6.12
2019-02-04T18:58:01.031Z,-6.10
2019-02-04T19:02:05.766Z,-6.08
2019-02-04T19:06:08.566Z,-6.07
2019-02-04T19:10:12.371Z,-6.07
2019-02-04T19:14:15.166Z,-6.04
2019-02-04T19:18:18.954Z,-6.01
2019-02-04T19:22:21.801Z,-5.99
2019-02-04T19:26:24.896Z,-5.96
2019-02-04T19:30:39.882Z,-5.93
2019-02-04T19:34:44.027Z,-5.90
2019-02-04T19:38:46.851Z,-5.87
2019-02-04T19:42:49.748Z,-5.86
2019-02-04T19:46:52.459Z,-5.79
2019-02-04T19:50:55.484Z,-5.77
2019-02-04T19:54:59.785Z,-5.74
2019-02-04T19:59:02.770Z,-5.71
2019-02-04T20:03:05.730Z,-5.68
2019-02-04T20:07:08.664Z,-5.65
2019-02-04T20:11:11.575Z,-5.61
2019-02-04T20:15:17.450Z,-5.57
2019-02-04T20:19:20.665Z,-5.52
2019-02-04T20:23:23.608Z,-5.48
2019-02-04T20:27:27.218Z,-5.46
2019-02-04T20:31:30.064Z,-5.43
2019-02-04T20:35:32.800Z,-5.39
2019-02-04T20:39:35.715Z,-5.36
2019-02-04T20:43:38.439Z,-5.34
2019-02-04T20:47:41.595Z,-5.30
2019-02-04T20:51:44.358Z,-5.26
2019-02-04T20:55:47.358Z,-5.22
2019-02-04T20:59:50.130Z,-5.19
2019-02-04T21:03:52.966Z,-5.16
2019-02-04T21:07:55.827Z,-5.12
2019-02-04T21:11:58.803Z,-5.09
2019-02-04T21:16:01.569Z,-5.06
2019-02-04T21:20:06.843Z,-5.02
2019-02-04T21:24:09.605Z,-5.00
2019-02-04T21:28:12.477Z,-4.97
2019-02-04T21:32:15.644Z,-4.93
2019-02-04T21:36:19.107Z,-4.89
2019-02-04T21:40:22.648Z,-4.75
2019-02-04T21:44:25.507Z,-4.72
2019-02-04T21:48:28.258Z,-4.66
2019-02-04T21:52:31.152Z,-4.62
2019-02-04T21:56:34.058Z,-4.57
2019-02-04T22:00:39.074Z,-4.53
2019-02-04T22:04:41.910Z,-4.47
2019-02-04T22:08:44.829Z,-4.40
2019-02-04T22:12:47.680Z,-4.35
2019-02-04T22:16:50.520Z,-4.32
2019-02-04T22:20:53.487Z,-4.32
2019-02-04T22:24:56.413Z,-4.35
2019-02-04T22:28:59.507Z,-4.32
2019-02-04T22:33:02.448Z,-4.27
2019-02-04T22:37:05.303Z,-4.26
2019-02-04T22:41:09.743Z,-4.26
2019-02-04T22:45:13.053Z,-4.24
2019-02-04T22:49:15.960Z,-4.21
2019-02-04T22:53:18.813Z,-4.22
2019-02-04T22:57:21.796Z,-4.18
2019-02-04T23:01:39.959Z,-4.16
2019-02-04T23:05:43.020Z,-4.16
2019-02-04T23:09:45.879Z,-4.19
2019-02-04T23:13:48.547Z,-4.24
2019-02-04T23:17:52.446Z,-4.25
2019-02-04T23:21:55.212Z,-4.24
2019-02-04T23:25:57.987Z,-4.25
2019-02-04T23:30:01.086Z,-4.25
2019-02-04T23:34:04.061Z,-4.30
2019-02-04T23:38:08.396Z,-4.26
2019-02-04T23:42:11.569Z,-4.23
2019-02-04T23:46:14.516Z,-4.22
2019-02-04T23:50:17.456Z,-4.17
2019-02-04T23:54:20.279Z,-4.13
2019-02-04T23:58:23.045Z,-4.09
